createdAt,value
2018-11-27T00:00:20.851Z,24.97
2018-11-27T00:02:47.823Z,21.53
2018-11-27T00:05:14.785Z,25.13
2018-11-27T00:07:41.877Z,22.97
2018-11-27T00:10:09.312Z,25.17
2018-11-27T00:12:36.284Z,23.23
2018-11-27T00:15:06.023Z,26.40
2018-11-27T00:17:32.985Z,22.77
2018-11-27T00:19:59.976Z,24.03
2018-11-27T00:22:26.960Z,24.70
2018-11-27T00:24:54.116Z,24.53
2018-11-27T00:27:21.074Z,24.97
2018-11-27T00:29:48.068Z,26.87
2018-11-27T00:32:15.068Z,23.33
2018-11-27T00:34:42.027Z,26.17
2018-11-27T00:37:09.000Z,23.60
2018-11-27T00:39:35.971Z,26.60
2018-11-27T00:42:02.996Z,26.50
2018-11-27T00:44:30.084Z,23.50
2018-11-27T00:46:57.025Z,26.67
2018-11-27T00:49:23.977Z,26.00
2018-11-27T00:51:51.128Z,24.43
2018-11-27T00:54:18.113Z,26.87
2018-11-27T00:56:45.571Z,24.43
2018-11-27T00:59:12.520Z,28.23
2018-11-27T01:01:39.499Z,23.60
2018-11-27T01:04:06.479Z,25.93
2018-11-27T01:06:33.477Z,22.67
2018-11-27T01:09:00.467Z,26.73
2018-11-27T01:11:27.434Z,23.60
2018-11-27T01:13:54.398Z,26.00
2018-11-27T01:16:21.384Z,24.67
2018-11-27T01:18:48.409Z,24.47
2018-11-27T01:21:15.381Z,25.43
2018-11-27T01:23:42.349Z,24.00
2018-11-27T01:26:09.315Z,27.53
2018-11-27T01:28:36.284Z,25.93
2018-11-27T01:31:03.312Z,27.10
2018-11-27T01:33:30.268Z,27.30
2018-11-27T01:35:57.246Z,26.83
2018-11-27T01:38:24.225Z,30.07
2018-11-27T01:40:51.188Z,30.87
2018-11-27T01:43:18.153Z,30.07
2018-11-27T01:45:45.128Z,28.13
2018-11-27T01:48:12.084Z,30.33
2018-11-27T01:50:39.061Z,26.90
2018-11-27T01:53:06.113Z,26.70
2018-11-27T01:55:33.088Z,28.57
2018-11-27T01:58:00.512Z,27.97
2018-11-27T02:00:28.609Z,30.37
2018-11-27T02:02:56.190Z,29.40
2018-11-27T02:05:23.900Z,26.07
2018-11-27T02:07:50.889Z,26.80
2018-11-27T02:10:17.859Z,32.43
2018-11-27T02:12:45.762Z,28.20
2018-11-27T02:15:17.967Z,25.03
2018-11-27T02:17:44.928Z,30.67
2018-11-27T02:20:11.920Z,29.13
2018-11-27T02:22:39.047Z,24.93
2018-11-27T02:25:26.233Z,28.67
2018-11-27T02:27:53.196Z,26.67
2018-11-27T02:30:21.127Z,29.63
2018-11-27T02:32:48.075Z,25.00
2018-11-27T02:35:16.873Z,26.60
2018-11-27T02:37:45.322Z,27.57
2018-11-27T02:40:14.436Z,24.37
2018-11-27T02:42:41.396Z,25.73
2018-11-27T02:45:09.852Z,27.43
2018-11-27T02:47:37.041Z,31.30
2018-11-27T02:50:05.009Z,26.90
2018-11-27T02:52:31.956Z,25.27
2018-11-27T02:54:58.895Z,25.93
2018-11-27T02:57:25.870Z,25.50
2018-11-27T02:59:53.425Z,30.73
2018-11-27T03:02:20.377Z,26.17
2018-11-27T03:04:47.332Z,24.13
2018-11-27T03:07:14.412Z,24.13
2018-11-27T03:09:41.362Z,28.07
2018-11-27T03:12:08.317Z,26.10
2018-11-27T03:14:35.248Z,26.07
2018-11-27T03:17:02.185Z,25.17
2018-11-27T03:19:29.156Z,27.33
2018-11-27T03:21:56.085Z,25.47
2018-11-27T03:24:23.020Z,26.23
2018-11-27T03:26:49.985Z,26.13
2018-11-27T03:29:16.907Z,25.43
2018-11-27T03:31:43.859Z,25.43
2018-11-27T03:34:10.803Z,26.00
2018-11-27T03:36:37.740Z,26.77
2018-11-27T03:39:09.421Z,27.70
2018-11-27T03:41:36.487Z,26.33
2018-11-27T03:44:03.452Z,30.57
2018-11-27T03:46:30.405Z,25.00
2018-11-27T03:48:57.439Z,27.40
2018-11-27T03:51:24.381Z,28.70
2018-11-27T03:53:51.324Z,25.23
2018-11-27T03:56:18.435Z,27.53
2018-11-27T03:58:45.353Z,29.27
2018-11-27T04:01:12.667Z,28.43
2018-11-27T04:03:39.618Z,24.93
2018-11-27T04:06:06.571Z,24.73
2018-11-27T04:08:33.517Z,26.70
2018-11-27T04:11:00.493Z,25.33
2018-11-27T04:13:27.416Z,25.50
2018-11-27T04:15:54.366Z,25.90
2018-11-27T04:18:21.358Z,26.33
2018-11-27T04:20:48.296Z,28.47
2018-11-27T04:23:15.249Z,25.27
2018-11-27T04:25:42.196Z,24.43
2018-11-27T04:28:09.141Z,28.10
2018-11-27T04:30:36.090Z,26.30
2018-11-27T04:33:03.050Z,26.53
2018-11-27T04:35:29.997Z,25.20
2018-11-27T04:37:56.961Z,27.23
2018-11-27T04:40:23.927Z,27.23
2018-11-27T04:42:50.870Z,26.57
2018-11-27T04:45:22.789Z,24.40
2018-11-27T04:47:49.771Z,24.93
2018-11-27T04:50:17.302Z,25.83
2018-11-27T04:52:44.377Z,26.47
2018-11-27T04:55:12.454Z,25.13
2018-11-27T04:57:39.435Z,24.77
2018-11-27T05:00:11.641Z,26.63
2018-11-27T05:02:38.790Z,26.07
2018-11-27T05:05:06.167Z,25.63
2018-11-27T05:07:33.128Z,24.70
2018-11-27T05:10:00.157Z,25.93
2018-11-27T05:12:27.137Z,29.07
2018-11-27T05:14:54.080Z,25.23
2018-11-27T05:17:21.040Z,30.17
2018-11-27T05:19:47.971Z,27.80
2018-11-27T05:22:14.924Z,27.17
2018-11-27T05:24:41.896Z,25.47
2018-11-27T05:27:08.844Z,25.43
2018-11-27T05:29:35.792Z,30.07
2018-11-27T05:32:02.767Z,27.33
2018-11-27T05:34:29.701Z,26.70
2018-11-27T05:36:56.644Z,26.80
2018-11-27T05:39:23.617Z,25.27
2018-11-27T05:41:50.557Z,26.60
2018-11-27T05:44:17.480Z,28.53
2018-11-27T05:46:44.455Z,29.23
2018-11-27T05:49:11.396Z,27.73
2018-11-27T05:51:38.348Z,28.27
2018-11-27T05:54:05.314Z,25.63
2018-11-27T05:56:32.240Z,29.10
2018-11-27T05:58:59.181Z,26.80
2018-11-27T06:01:26.162Z,25.80
2018-11-27T06:03:53.684Z,27.87
2018-11-27T06:06:20.653Z,26.03
2018-11-27T06:08:47.603Z,26.20
2018-11-27T06:11:14.619Z,25.60
2018-11-27T06:13:41.569Z,27.37
2018-11-27T06:16:08.539Z,28.40
2018-11-27T06:18:35.476Z,26.17
2018-11-27T06:21:02.417Z,30.27
2018-11-27T06:23:29.386Z,25.10
2018-11-27T06:25:56.317Z,25.67
2018-11-27T06:28:23.255Z,28.13
2018-11-27T06:30:50.252Z,28.47
2018-11-27T06:33:17.189Z,27.27
2018-11-27T06:35:44.164Z,27.77
2018-11-27T06:38:11.228Z,26.67
2018-11-27T06:40:39.259Z,27.37
2018-11-27T06:43:07.672Z,26.13
2018-11-27T06:45:34.757Z,30.73
2018-11-27T06:48:01.700Z,25.77
2018-11-27T06:50:28.652Z,28.57
2018-11-27T06:52:55.632Z,27.77
2018-11-27T06:55:23.361Z,31.50
2018-11-27T06:57:50.372Z,31.27
2018-11-27T07:00:21.401Z,26.43
2018-11-27T07:02:48.380Z,26.87
2018-11-27T07:05:15.851Z,28.50
2018-11-27T07:07:42.857Z,30.27
2018-11-27T07:10:14.493Z,28.17
2018-11-27T07:12:41.429Z,28.17
2018-11-27T07:15:10.784Z,28.37
2018-11-27T07:17:37.719Z,31.23
2018-11-27T07:20:06.488Z,26.73
2018-11-27T07:22:33.444Z,28.23
2018-11-27T07:25:00.396Z,30.97
2018-11-27T07:27:27.352Z,31.33
2018-11-27T07:29:54.328Z,30.07
2018-11-27T07:32:21.276Z,26.37
2018-11-27T07:34:48.222Z,29.83
2018-11-27T07:37:15.214Z,30.23
2018-11-27T07:39:42.155Z,28.67
2018-11-27T07:42:09.097Z,29.60
2018-11-27T07:44:36.040Z,30.53
2018-11-27T07:47:02.976Z,28.17
2018-11-27T07:49:29.937Z,29.60
2018-11-27T07:51:56.892Z,33.37
2018-11-27T07:54:23.828Z,25.70
2018-11-27T07:56:50.768Z,27.70
2018-11-27T07:59:17.715Z,30.67
2018-11-27T08:01:44.660Z,30.90
2018-11-27T08:04:11.610Z,27.27
2018-11-27T08:06:39.097Z,29.40
2018-11-27T08:09:08.397Z,27.13
2018-11-27T08:11:35.341Z,27.97
2018-11-27T08:14:02.291Z,29.37
2018-11-27T08:16:29.224Z,29.27
2018-11-27T08:18:56.165Z,28.73
2018-11-27T08:21:23.165Z,28.50
2018-11-27T08:23:50.116Z,32.20
2018-11-27T08:26:17.062Z,29.50
2018-11-27T08:28:44.012Z,40.17
2018-11-27T08:31:11.052Z,30.50
2018-11-27T08:33:38.056Z,29.20
2018-11-27T08:36:05.228Z,28.80
2018-11-27T08:38:32.181Z,32.13
2018-11-27T08:40:59.125Z,33.17
2018-11-27T08:43:26.065Z,30.77
2018-11-27T08:45:52.998Z,29.03
2018-11-27T08:48:19.996Z,29.50
2018-11-27T08:50:46.969Z,27.03
2018-11-27T08:53:13.920Z,26.60
2018-11-27T08:55:42.174Z,29.37
2018-11-27T08:58:13.000Z,30.83
2018-11-27T09:00:39.928Z,29.23
2018-11-27T09:03:06.872Z,33.73
2018-11-27T09:05:33.821Z,29.67
2018-11-27T09:08:01.119Z,30.03
2018-11-27T09:10:28.067Z,29.73
2018-11-27T09:12:55.032Z,31.10
2018-11-27T09:15:22.351Z,29.53
2018-11-27T09:17:53.480Z,30.33
2018-11-27T09:20:20.943Z,30.77
2018-11-27T09:22:47.375Z,35.73
2018-11-27T09:25:14.320Z,34.83
2018-11-27T09:27:41.316Z,37.53
2018-11-27T09:30:14.557Z,32.90
2018-11-27T09:32:41.525Z,31.63
2018-11-27T09:35:09.176Z,30.13
2018-11-27T09:37:36.112Z,36.93
2018-11-27T09:40:03.557Z,36.20
2018-11-27T09:42:30.516Z,30.40
2018-11-27T09:44:57.449Z,34.23
2018-11-27T09:47:24.413Z,33.00
2018-11-27T09:49:51.344Z,32.23
2018-11-27T09:52:18.293Z,38.50
2018-11-27T09:54:45.309Z,41.57
2018-11-27T09:57:12.257Z,33.90
2018-11-27T09:59:39.207Z,29.43
2018-11-27T10:02:06.252Z,31.03
2018-11-27T10:04:33.184Z,34.10
2018-11-27T10:07:00.120Z,31.47
2018-11-27T10:09:27.561Z,33.10
2018-11-27T10:11:54.520Z,33.50
2018-11-27T10:14:21.456Z,32.60
2018-11-27T10:16:48.429Z,34.23
2018-11-27T10:19:15.376Z,31.20
2018-11-27T10:21:42.329Z,32.73
2018-11-27T10:24:09.285Z,35.13
2018-11-27T10:26:36.224Z,35.37
2018-11-27T10:29:03.244Z,33.57
2018-11-27T10:31:30.320Z,28.83
2018-11-27T10:33:57.245Z,31.47
2018-11-27T10:36:24.200Z,30.77
2018-11-27T10:38:51.150Z,30.53
2018-11-27T10:41:18.095Z,31.40
2018-11-27T10:43:45.040Z,30.47
2018-11-27T10:46:12.027Z,30.00
2018-11-27T10:48:38.987Z,29.23
2018-11-27T10:51:05.929Z,32.63
2018-11-27T10:53:32.941Z,30.87
2018-11-27T10:55:59.893Z,33.83
2018-11-27T10:58:26.868Z,29.80
2018-11-27T11:00:59.511Z,31.07
2018-11-27T11:03:34.683Z,29.97
2018-11-27T11:06:02.232Z,31.43
2018-11-27T11:08:29.173Z,33.77
2018-11-27T11:10:56.761Z,28.43
2018-11-27T11:13:23.731Z,29.97
2018-11-27T11:15:50.673Z,31.43
2018-11-27T11:18:17.620Z,31.07
2018-11-27T11:20:44.641Z,30.47
2018-11-27T11:23:11.582Z,29.10
2018-11-27T11:25:38.514Z,30.37
2018-11-27T11:28:07.220Z,29.13
2018-11-27T11:30:34.184Z,31.77
2018-11-27T11:33:01.113Z,30.07
2018-11-27T11:35:28.083Z,26.77
2018-11-27T11:37:55.020Z,27.03
2018-11-27T11:40:23.797Z,25.90
2018-11-27T11:42:53.205Z,26.50
2018-11-27T11:45:20.163Z,28.77
2018-11-27T11:47:47.097Z,26.83
2018-11-27T11:50:20.361Z,28.93
2018-11-27T11:52:51.828Z,31.47
2018-11-27T11:55:19.263Z,26.67
2018-11-27T11:57:46.230Z,30.07
2018-11-27T12:00:15.057Z,32.07
2018-11-27T12:02:41.947Z,32.43
2018-11-27T12:05:10.177Z,29.47
2018-11-27T12:07:37.118Z,30.97
2018-11-27T12:10:05.168Z,29.20
2018-11-27T12:12:32.485Z,31.63
2018-11-27T12:14:59.428Z,30.87
2018-11-27T12:17:26.409Z,31.13
2018-11-27T12:19:53.368Z,30.87
2018-11-27T12:22:20.329Z,32.90
2018-11-27T12:24:47.266Z,29.07
2018-11-27T12:27:14.432Z,34.10
2018-11-27T12:29:41.602Z,31.27
2018-11-27T12:32:08.460Z,31.90
2018-11-27T12:34:35.424Z,31.23
2018-11-27T12:37:02.399Z,31.40
2018-11-27T12:39:29.349Z,32.30
2018-11-27T12:41:56.303Z,30.33
2018-11-27T12:44:23.244Z,30.90
2018-11-27T12:46:50.310Z,29.53
2018-11-27T12:49:17.396Z,29.90
2018-11-27T12:51:44.376Z,31.63
2018-11-27T12:54:11.293Z,27.53
2018-11-27T12:56:43.594Z,35.77
2018-11-27T12:59:05.594Z,27.43
2018-11-27T13:01:32.616Z,27.37
2018-11-27T13:03:59.564Z,29.20
2018-11-27T13:06:27.921Z,32.40
2018-11-27T13:08:53.449Z,28.23
2018-11-27T13:11:20.417Z,26.50
2018-11-27T13:13:47.724Z,29.17
2018-11-27T13:16:14.682Z,27.03
2018-11-27T13:18:41.645Z,25.73
2018-11-27T13:21:08.583Z,28.47
2018-11-27T13:23:35.521Z,25.77
2018-11-27T13:26:02.480Z,29.87
2018-11-27T13:28:29.415Z,31.23
2018-11-27T13:30:59.718Z,29.47
2018-11-27T13:33:31.257Z,26.77
2018-11-27T13:35:58.201Z,27.83
2018-11-27T13:38:26.139Z,33.60
2018-11-27T13:40:52.117Z,31.03
2018-11-27T13:43:22.277Z,25.60
2018-11-27T13:45:49.212Z,27.37
2018-11-27T13:48:16.342Z,31.87
2018-11-27T13:50:43.296Z,27.97
2018-11-27T13:53:10.355Z,28.27
2018-11-27T13:55:37.309Z,26.77
2018-11-27T13:58:04.289Z,26.63
2018-11-27T14:00:31.225Z,27.07
2018-11-27T14:02:58.278Z,24.80
2018-11-27T14:05:25.227Z,28.33
2018-11-27T14:07:52.223Z,24.67
2018-11-27T14:10:19.285Z,28.07
2018-11-27T14:12:46.263Z,25.93
2018-11-27T14:15:22.667Z,25.17
2018-11-27T14:17:50.649Z,29.47
2018-11-27T14:20:17.624Z,25.93
2018-11-27T14:22:45.753Z,29.80
2018-11-27T14:25:13.023Z,30.00
2018-11-27T14:27:40.066Z,30.17
2018-11-27T14:30:14.264Z,29.27
2018-11-27T14:32:41.376Z,35.40
2018-11-27T14:35:08.407Z,29.03
2018-11-27T14:37:35.369Z,27.23
2018-11-27T14:40:03.573Z,28.40
2018-11-27T14:42:30.595Z,29.70
2018-11-27T14:44:57.566Z,26.47
2018-11-27T14:47:24.521Z,27.10
2018-11-27T14:49:51.521Z,32.37
2018-11-27T14:52:18.499Z,28.13
2018-11-27T14:54:45.429Z,28.47
2018-11-27T14:57:12.405Z,30.77
2018-11-27T14:59:39.541Z,27.93
2018-11-27T15:02:06.512Z,31.00
2018-11-27T15:04:33.481Z,30.83
2018-11-27T15:07:00.491Z,26.77
2018-11-27T15:09:27.425Z,38.37
2018-11-27T15:11:54.381Z,30.43
2018-11-27T15:14:25.165Z,35.30
2018-11-27T15:16:48.695Z,32.97
2018-11-27T15:19:15.663Z,29.83
2018-11-27T15:21:42.645Z,32.97
2018-11-27T15:24:09.762Z,36.77
2018-11-27T15:26:36.847Z,40.57
2018-11-27T15:29:03.905Z,34.17
2018-11-27T15:31:30.873Z,32.17
2018-11-27T15:33:57.845Z,36.13
2018-11-27T15:36:25.122Z,34.37
2018-11-27T15:38:52.153Z,34.90
2018-11-27T15:41:19.209Z,36.80
2018-11-27T15:43:46.228Z,38.43
2018-11-27T15:46:13.166Z,36.43
2018-11-27T15:48:40.240Z,38.90
2018-11-27T15:51:07.288Z,34.43
2018-11-27T15:53:34.329Z,37.03
2018-11-27T15:56:01.275Z,35.17
2018-11-27T15:58:28.227Z,36.97
2018-11-27T16:00:55.172Z,35.53
2018-11-27T16:03:22.156Z,32.10
2018-11-27T16:05:49.206Z,33.47
2018-11-27T16:08:16.154Z,35.97
2018-11-27T16:10:43.189Z,34.00
2018-11-27T16:13:10.165Z,32.17
2018-11-27T16:15:38.076Z,30.60
2018-11-27T16:18:06.541Z,38.17
2018-11-27T16:20:33.505Z,35.77
2018-11-27T16:23:00.463Z,32.37
2018-11-27T16:25:27.465Z,32.67
2018-11-27T16:27:54.415Z,29.33
2018-11-27T16:30:29.530Z,33.57
2018-11-27T16:32:56.586Z,34.87
2018-11-27T16:35:23.652Z,32.70
2018-11-27T16:37:52.732Z,32.93
2018-11-27T16:40:23.095Z,31.70
2018-11-27T16:42:50.046Z,35.43
2018-11-27T16:45:18.977Z,34.90
2018-11-27T16:47:46.181Z,34.43
2018-11-27T16:50:14.124Z,34.77
2018-11-27T16:52:41.242Z,36.10
2018-11-27T16:55:10.920Z,33.80
2018-11-27T16:57:38.026Z,33.87
2018-11-27T17:00:14.328Z,35.07
2018-11-27T17:02:41.292Z,35.93
2018-11-27T17:05:08.338Z,41.47
2018-11-27T17:07:35.519Z,35.67
2018-11-27T17:10:02.754Z,34.40
2018-11-27T17:12:29.697Z,33.40
2018-11-27T17:14:56.671Z,35.57
2018-11-27T17:17:23.691Z,37.43
2018-11-27T17:19:51.088Z,38.27
2018-11-27T17:22:18.321Z,38.67
2018-11-27T17:24:46.000Z,37.33
2018-11-27T17:27:13.048Z,38.07
2018-11-27T17:29:40.372Z,34.93
2018-11-27T17:32:07.497Z,34.97
2018-11-27T17:34:34.564Z,31.70
2018-11-27T17:37:01.564Z,37.33
2018-11-27T17:39:28.586Z,37.97
2018-11-27T17:41:55.805Z,38.40
2018-11-27T17:44:22.850Z,40.90
2018-11-27T17:46:49.865Z,34.77
2018-11-27T17:49:16.953Z,37.87
2018-11-27T17:51:43.928Z,37.47
2018-11-27T17:54:10.872Z,34.43
2018-11-27T17:56:37.829Z,36.23
2018-11-27T17:59:04.885Z,34.97
2018-11-27T18:01:31.828Z,38.43
2018-11-27T18:03:58.772Z,36.20
2018-11-27T18:06:25.747Z,36.90
2018-11-27T18:08:52.683Z,35.47
2018-11-27T18:11:24.882Z,40.50
2018-11-27T18:13:51.893Z,37.17
2018-11-27T18:16:18.890Z,35.97
2018-11-27T18:18:45.879Z,34.37
2018-11-27T18:21:13.113Z,42.17
2018-11-27T18:23:40.050Z,37.33
2018-11-27T18:26:07.007Z,39.47
2018-11-27T18:28:34.001Z,41.80
2018-11-27T18:31:00.969Z,37.20
2018-11-27T18:33:27.909Z,36.23
2018-11-27T18:35:54.904Z,38.30
2018-11-27T18:38:21.853Z,37.20
2018-11-27T18:40:48.800Z,43.57
2018-11-27T18:43:15.759Z,38.10
2018-11-27T18:45:42.716Z,38.83
2018-11-27T18:48:09.684Z,36.33
2018-11-27T18:50:36.677Z,34.17
2018-11-27T18:53:03.656Z,37.13
2018-11-27T18:55:30.610Z,38.53
2018-11-27T18:57:57.563Z,34.43
2018-11-27T19:00:26.740Z,39.87
2018-11-27T19:02:53.723Z,35.57
2018-11-27T19:05:20.784Z,37.73
2018-11-27T19:07:47.767Z,35.93
2018-11-27T19:10:16.745Z,34.77
2018-11-27T19:12:43.828Z,33.40
2018-11-27T19:15:21.608Z,32.57
2018-11-27T19:17:50.113Z,33.53
2018-11-27T19:20:17.058Z,31.73
2018-11-27T19:22:44.676Z,71.73
2018-11-27T19:25:12.859Z,44.57
2018-11-27T19:27:40.007Z,38.90
2018-11-27T19:30:16.038Z,34.83
2018-11-27T19:32:39.363Z,34.90
2018-11-27T19:35:08.079Z,37.17
2018-11-27T19:37:35.036Z,36.53
2018-11-27T19:40:02.007Z,36.17
2018-11-27T19:42:28.940Z,36.60
2018-11-27T19:44:55.893Z,35.17
2018-11-27T19:47:22.879Z,39.60
2018-11-27T19:49:49.829Z,35.53
2018-11-27T19:52:16.873Z,36.77
2018-11-27T19:54:43.947Z,36.77
2018-11-27T19:57:10.892Z,33.33
2018-11-27T19:59:37.818Z,40.40
2018-11-27T20:02:04.999Z,34.53
2018-11-27T20:04:31.996Z,38.73
2018-11-27T20:07:04.712Z,37.07
2018-11-27T20:09:31.667Z,36.63
2018-11-27T20:11:58.619Z,34.50
2018-11-27T20:14:25.565Z,34.10
2018-11-27T20:16:52.517Z,36.97
2018-11-27T20:19:19.561Z,33.63
2018-11-27T20:21:47.017Z,34.13
2018-11-27T20:24:14.805Z,32.17
2018-11-27T20:26:42.117Z,36.83
2018-11-27T20:29:17.275Z,33.53
2018-11-27T20:31:44.300Z,35.47
2018-11-27T20:34:11.552Z,39.40
2018-11-27T20:36:38.509Z,36.43
2018-11-27T20:39:08.268Z,32.53
2018-11-27T20:41:35.546Z,39.87
2018-11-27T20:44:02.781Z,34.20
2018-11-27T20:46:29.848Z,30.73
2018-11-27T20:48:56.895Z,33.77
2018-11-27T20:51:24.526Z,52.77
2018-11-27T20:53:51.477Z,33.63
2018-11-27T20:56:18.890Z,38.80
2018-11-27T20:58:46.127Z,36.47
2018-11-27T21:01:13.096Z,37.33
2018-11-27T21:03:40.037Z,43.13
2018-11-27T21:06:07.223Z,35.00
2018-11-27T21:08:34.288Z,37.60
2018-11-27T21:11:01.438Z,37.33
2018-11-27T21:13:28.489Z,38.67
2018-11-27T21:15:55.646Z,37.80
2018-11-27T21:18:22.615Z,34.47
2018-11-27T21:20:50.124Z,38.70
2018-11-27T21:23:17.081Z,39.20
2018-11-27T21:25:44.432Z,38.77
2018-11-27T21:28:14.765Z,36.47
2018-11-27T21:30:42.876Z,36.30
2018-11-27T21:33:09.857Z,35.37
2018-11-27T21:35:37.082Z,38.03
2018-11-27T21:38:04.749Z,35.30
2018-11-27T21:40:31.700Z,35.60
2018-11-27T21:43:00.430Z,37.03
2018-11-27T21:45:27.906Z,39.20
2018-11-27T21:47:56.400Z,35.90
2018-11-27T21:50:29.125Z,36.30
2018-11-27T21:52:57.169Z,32.63
2018-11-27T21:55:24.109Z,40.33
2018-11-27T21:57:51.135Z,33.30
2018-11-27T22:00:19.117Z,37.10
2018-11-27T22:02:46.096Z,34.67
2018-11-27T22:05:13.303Z,34.57
2018-11-27T22:07:40.288Z,34.00
2018-11-27T22:10:08.874Z,36.63
2018-11-27T22:12:35.846Z,35.37
2018-11-27T22:15:02.910Z,32.80
2018-11-27T22:17:29.929Z,36.97
2018-11-27T22:19:56.907Z,33.17
2018-11-27T22:22:23.874Z,35.00
2018-11-27T22:24:50.892Z,34.57
2018-11-27T22:27:18.217Z,34.60
2018-11-27T22:29:45.282Z,38.40
2018-11-27T22:32:12.235Z,34.63
2018-11-27T22:34:39.221Z,37.40
2018-11-27T22:37:06.182Z,34.23
2018-11-27T22:39:33.129Z,36.73
2018-11-27T22:42:00.099Z,39.10
2018-11-27T22:44:27.039Z,33.40
2018-11-27T22:46:53.980Z,33.43
2018-11-27T22:49:20.945Z,35.60
2018-11-27T22:51:47.913Z,32.27
2018-11-27T22:54:14.866Z,36.60
2018-11-27T22:56:41.824Z,34.47
2018-11-27T22:59:08.789Z,34.10
2018-11-27T23:01:37.519Z,32.87
2018-11-27T23:04:06.417Z,33.93
2018-11-27T23:06:33.368Z,31.43
2018-11-27T23:09:00.328Z,51.20
2018-11-27T23:11:27.323Z,45.37
2018-11-27T23:13:54.279Z,33.30
2018-11-27T23:16:21.240Z,34.53
2018-11-27T23:18:48.230Z,32.03
2018-11-27T23:21:15.176Z,32.97
2018-11-27T23:23:42.128Z,33.73
2018-11-27T23:26:09.144Z,30.13
2018-11-27T23:28:36.887Z,32.40
2018-11-27T23:31:04.993Z,32.63
2018-11-27T23:33:31.240Z,29.27
2018-11-27T23:35:58.199Z,36.83
2018-11-27T23:38:25.151Z,31.07
2018-11-27T23:40:52.128Z,26.03
2018-11-27T23:43:19.077Z,29.90
2018-11-27T23:45:46.028Z,33.97
2018-11-27T23:48:13.007Z,31.87
2018-11-27T23:50:39.963Z,30.40
2018-11-27T23:53:06.924Z,29.47
2018-11-27T23:55:33.896Z,32.53
2018-11-27T23:58:00.856Z,28.50
